sensor_id;sensor_type;location;lat;lon;timestamp;P1;durP1;ratioP1;P2;durP2;ratioP2
20794;SDS011;28087;-33.874;151.240;2022-12-29T00:02:23;18.27;;;2.83;;
20794;SDS011;28087;-33.874;151.240;2022-12-29T00:04:58;13.95;;;3.17;;
20794;SDS011;28087;-33.874;151.240;2022-12-29T00:07:35;19.33;;;2.78;;
20794;SDS011;28087;-33.874;151.240;2022-12-29T00:10:10;17.00;;;3.20;;
20794;SDS011;28087;-33.874;151.240;2022-12-29T00:12:45;15.85;;;2.90;;
20794;SDS011;28087;-33.874;151.240;2022-12-29T00:15:36;13.30;;;2.63;;
20794;SDS011;28087;-33.874;151.240;2022-12-29T00:18:12;15.85;;;3.35;;
20794;SDS011;28087;-33.874;151.240;2022-12-29T00:20:47;12.50;;;2.60;;
20794;SDS011;28087;-33.874;151.240;2022-12-29T00:23:42;22.27;;;3.58;;
20794;SDS011;28087;-33.874;151.240;2022-12-29T00:26:35;15.88;;;2.80;;
20794;SDS011;28087;-33.874;151.240;2022-12-29T00:29:27;17.60;;;2.90;;
20794;SDS011;28087;-33.874;151.240;2022-12-29T00:32:19;14.18;;;2.92;;
20794;SDS011;28087;-33.874;151.240;2022-12-29T00:35:14;16.88;;;2.90;;
20794;SDS011;28087;-33.874;151.240;2022-12-29T00:37:50;14.35;;;2.80;;
20794;SDS011;28087;-33.874;151.240;2022-12-29T00:40:47;15.82;;;3.20;;
20794;SDS011;28087;-33.874;151.240;2022-12-29T00:43:38;14.75;;;3.17;;
20794;SDS011;28087;-33.874;151.240;2022-12-29T00:46:29;17.10;;;3.25;;
20794;SDS011;28087;-33.874;151.240;2022-12-29T00:49:07;16.65;;;2.92;;
20794;SDS011;28087;-33.874;151.240;2022-12-29T00:52:00;17.40;;;3.55;;
20794;SDS011;28087;-33.874;151.240;2022-12-29T00:54:36;15.77;;;3.35;;
20794;SDS011;28087;-33.874;151.240;2022-12-29T00:57:13;15.07;;;3.33;;
20794;SDS011;28087;-33.874;151.240;2022-12-29T00:59:48;16.17;;;2.92;;
20794;SDS011;28087;-33.874;151.240;2022-12-29T01:02:24;17.75;;;3.33;;
20794;SDS011;28087;-33.874;151.240;2022-12-29T01:04:59;23.50;;;3.55;;
20794;SDS011;28087;-33.874;151.240;2022-12-29T01:07:34;18.30;;;3.67;;
20794;SDS011;28087;-33.874;151.240;2022-12-29T01:10:08;20.27;;;3.47;;
20794;SDS011;28087;-33.874;151.240;2022-12-29T01:12:44;16.50;;;3.60;;
20794;SDS011;28087;-33.874;151.240;2022-12-29T01:15:20;18.13;;;3.20;;
20794;SDS011;28087;-33.874;151.240;2022-12-29T01:17:58;20.98;;;3.92;;
20794;SDS011;28087;-33.874;151.240;2022-12-29T01:20:33;20.58;;;3.83;;
20794;SDS011;28087;-33.874;151.240;2022-12-29T01:23:08;18.33;;;3.67;;
20794;SDS011;28087;-33.874;151.240;2022-12-29T01:25:43;17.55;;;3.53;;
20794;SDS011;28087;-33.874;151.240;2022-12-29T01:28:23;17.40;;;3.50;;
20794;SDS011;28087;-33.874;151.240;2022-12-29T01:31:00;18.60;;;3.40;;
20794;SDS011;28087;-33.874;151.240;2022-12-29T01:33:36;19.63;;;3.72;;
20794;SDS011;28087;-33.874;151.240;2022-12-29T01:36:11;21.05;;;3.95;;
20794;SDS011;28087;-33.874;151.240;2022-12-29T01:38:46;20.90;;;3.92;;
20794;SDS011;28087;-33.874;151.240;2022-12-29T01:41:22;18.83;;;3.78;;
20794;SDS011;28087;-33.874;151.240;2022-12-29T01:43:59;18.60;;;3.42;;
20794;SDS011;28087;-33.874;151.240;2022-12-29T01:46:36;17.45;;;3.38;;
20794;SDS011;28087;-33.874;151.240;2022-12-29T01:49:12;15.05;;;3.40;;
20794;SDS011;28087;-33.874;151.240;2022-12-29T01:51:50;19.08;;;3.40;;
20794;SDS011;28087;-33.874;151.240;2022-12-29T01:54:28;20.05;;;3.47;;
20794;SDS011;28087;-33.874;151.240;2022-12-29T01:57:04;15.10;;;3.50;;
20794;SDS011;28087;-33.874;151.240;2022-12-29T01:59:43;18.00;;;3.70;;
20794;SDS011;28087;-33.874;151.240;2022-12-29T02:02:25;12.65;;;3.15;;
20794;SDS011;28087;-33.874;151.240;2022-12-29T02:05:05;12.85;;;2.67;;
20794;SDS011;28087;-33.874;151.240;2022-12-29T02:07:41;17.35;;;3.20;;
20794;SDS011;28087;-33.874;151.240;2022-12-29T02:10:19;16.33;;;2.90;;
20794;SDS011;28087;-33.874;151.240;2022-12-29T02:12:56;13.60;;;3.15;;
20794;SDS011;28087;-33.874;151.240;2022-12-29T02:15:40;14.88;;;2.80;;
20794;SDS011;28087;-33.874;151.240;2022-12-29T02:18:28;12.00;;;3.03;;
20794;SDS011;28087;-33.874;151.240;2022-12-29T02:21:19;17.27;;;3.50;;
20794;SDS011;28087;-33.874;151.240;2022-12-29T02:27:29;16.63;;;3.00;;
20794;SDS011;28087;-33.874;151.240;2022-12-29T02:30:31;15.15;;;3.10;;
20794;SDS011;28087;-33.874;151.240;2022-12-29T02:33:25;16.55;;;3.28;;
20794;SDS011;28087;-33.874;151.240;2022-12-29T02:36:07;17.05;;;3.40;;
20794;SDS011;28087;-33.874;151.240;2022-12-29T02:38:51;15.80;;;3.45;;
20794;SDS011;28087;-33.874;151.240;2022-12-29T02:41:37;18.58;;;3.80;;
20794;SDS011;28087;-33.874;151.240;2022-12-29T02:44:20;16.00;;;3.35;;
20794;SDS011;28087;-33.874;151.240;2022-12-29T02:47:08;16.30;;;3.35;;
20794;SDS011;28087;-33.874;151.240;2022-12-29T02:49:49;16.20;;;3.58;;
20794;SDS011;28087;-33.874;151.240;2022-12-29T02:52:31;16.63;;;3.25;;
20794;SDS011;28087;-33.874;151.240;2022-12-29T02:55:11;19.33;;;3.33;;
20794;SDS011;28087;-33.874;151.240;2022-12-29T02:57:45;15.75;;;3.70;;
20794;SDS011;28087;-33.874;151.240;2022-12-29T03:00:22;12.90;;;2.92;;
20794;SDS011;28087;-33.874;151.240;2022-12-29T03:03:04;14.07;;;2.92;;
20794;SDS011;28087;-33.874;151.240;2022-12-29T03:08:48;16.02;;;3.10;;
20794;SDS011;28087;-33.874;151.240;2022-12-29T03:11:30;11.90;;;3.20;;
20794;SDS011;28087;-33.874;151.240;2022-12-29T03:14:29;11.20;;;2.95;;
20794;SDS011;28087;-33.874;151.240;2022-12-29T03:17:27;10.85;;;2.70;;
20794;SDS011;28087;-33.874;151.240;2022-12-29T03:20:08;8.15;;;2.65;;
20794;SDS011;28087;-33.874;151.240;2022-12-29T03:23:13;9.40;;;2.60;;
20794;SDS011;28087;-33.874;151.240;2022-12-29T03:25:55;9.07;;;2.85;;
20794;SDS011;28087;-33.874;151.240;2022-12-29T03:28:35;8.02;;;2.40;;
20794;SDS011;28087;-33.874;151.240;2022-12-29T03:31:16;9.20;;;3.20;;
20794;SDS011;28087;-33.874;151.240;2022-12-29T03:33:55;9.32;;;3.00;;
20794;SDS011;28087;-33.874;151.240;2022-12-29T03:36:39;10.63;;;2.70;;
20794;SDS011;28087;-33.874;151.240;2022-12-29T03:39:17;12.07;;;2.70;;
20794;SDS011;28087;-33.874;151.240;2022-12-29T03:41:54;12.18;;;3.15;;
20794;SDS011;28087;-33.874;151.240;2022-12-29T03:44:34;11.40;;;2.75;;
20794;SDS011;28087;-33.874;151.240;2022-12-29T03:47:12;9.35;;;2.63;;
20794;SDS011;28087;-33.874;151.240;2022-12-29T03:49:48;13.15;;;3.10;;
20794;SDS011;28087;-33.874;151.240;2022-12-29T03:52:25;8.93;;;2.63;;
20794;SDS011;28087;-33.874;151.240;2022-12-29T03:55:00;12.38;;;3.03;;
20794;SDS011;28087;-33.874;151.240;2022-12-29T03:57:35;13.30;;;3.10;;
20794;SDS011;28087;-33.874;151.240;2022-12-29T04:00:16;10.30;;;3.00;;
20794;SDS011;28087;-33.874;151.240;2022-12-29T04:02:51;11.13;;;2.67;;
20794;SDS011;28087;-33.874;151.240;2022-12-29T04:05:28;13.85;;;3.03;;
20794;SDS011;28087;-33.874;151.240;2022-12-29T04:08:06;11.18;;;2.65;;
20794;SDS011;28087;-33.874;151.240;2022-12-29T04:10:40;10.90;;;3.35;;
20794;SDS011;28087;-33.874;151.240;2022-12-29T04:13:17;11.15;;;2.60;;
20794;SDS011;28087;-33.874;151.240;2022-12-29T04:15:54;12.00;;;2.70;;
20794;SDS011;28087;-33.874;151.240;2022-12-29T04:18:28;10.20;;;2.78;;
20794;SDS011;28087;-33.874;151.240;2022-12-29T04:21:04;12.82;;;2.92;;
20794;SDS011;28087;-33.874;151.240;2022-12-29T04:23:43;11.65;;;2.47;;
20794;SDS011;28087;-33.874;151.240;2022-12-29T04:26:19;10.38;;;2.80;;
20794;SDS011;28087;-33.874;151.240;2022-12-29T04:29:00;9.27;;;2.72;;
20794;SDS011;28087;-33.874;151.240;2022-12-29T04:32:10;8.65;;;2.78;;
20794;SDS011;28087;-33.874;151.240;2022-12-29T04:34:51;10.77;;;2.60;;
20794;SDS011;28087;-33.874;151.240;2022-12-29T04:37:26;10.88;;;2.53;;
20794;SDS011;28087;-33.874;151.240;2022-12-29T04:40:04;10.73;;;2.58;;
20794;SDS011;28087;-33.874;151.240;2022-12-29T04:42:39;12.85;;;3.00;;
20794;SDS011;28087;-33.874;151.240;2022-12-29T04:45:14;14.00;;;2.78;;
20794;SDS011;28087;-33.874;151.240;2022-12-29T04:48:01;10.80;;;2.50;;
20794;SDS011;28087;-33.874;151.240;2022-12-29T04:50:56;14.38;;;3.10;;
20794;SDS011;28087;-33.874;151.240;2022-12-29T04:53:37;13.57;;;2.88;;
20794;SDS011;28087;-33.874;151.240;2022-12-29T04:56:13;14.90;;;2.95;;
20794;SDS011;28087;-33.874;151.240;2022-12-29T04:58:49;12.68;;;2.78;;
20794;SDS011;28087;-33.874;151.240;2022-12-29T05:01:24;12.40;;;2.80;;
20794;SDS011;28087;-33.874;151.240;2022-12-29T05:04:01;11.63;;;2.90;;
20794;SDS011;28087;-33.874;151.240;2022-12-29T05:06:36;12.27;;;3.00;;
20794;SDS011;28087;-33.874;151.240;2022-12-29T05:09:12;13.30;;;2.90;;
20794;SDS011;28087;-33.874;151.240;2022-12-29T05:11:48;12.15;;;2.90;;
20794;SDS011;28087;-33.874;151.240;2022-12-29T05:14:24;12.25;;;2.97;;
20794;SDS011;28087;-33.874;151.240;2022-12-29T05:16:59;13.77;;;3.25;;
20794;SDS011;28087;-33.874;151.240;2022-12-29T05:19:36;12.25;;;3.15;;
20794;SDS011;28087;-33.874;151.240;2022-12-29T05:22:11;10.75;;;3.08;;
20794;SDS011;28087;-33.874;151.240;2022-12-29T05:24:46;11.55;;;3.08;;
20794;SDS011;28087;-33.874;151.240;2022-12-29T05:27:23;11.90;;;2.90;;
20794;SDS011;28087;-33.874;151.240;2022-12-29T05:30:07;12.00;;;3.05;;
20794;SDS011;28087;-33.874;151.240;2022-12-29T05:32:42;14.38;;;3.40;;
20794;SDS011;28087;-33.874;151.240;2022-12-29T05:35:18;16.17;;;3.42;;
20794;SDS011;28087;-33.874;151.240;2022-12-29T05:37:53;11.80;;;2.67;;
20794;SDS011;28087;-33.874;151.240;2022-12-29T05:40:29;11.00;;;2.97;;
20794;SDS011;28087;-33.874;151.240;2022-12-29T05:43:10;15.90;;;5.30;;
20794;SDS011;28087;-33.874;151.240;2022-12-29T05:46:07;16.15;;;3.28;;
20794;SDS011;28087;-33.874;151.240;2022-12-29T05:49:08;10.82;;;2.90;;
20794;SDS011;28087;-33.874;151.240;2022-12-29T05:51:58;14.32;;;2.95;;
20794;SDS011;28087;-33.874;151.240;2022-12-29T05:54:34;14.18;;;3.22;;
20794;SDS011;28087;-33.874;151.240;2022-12-29T05:57:13;13.45;;;2.88;;
20794;SDS011;28087;-33.874;151.240;2022-12-29T05:59:57;13.45;;;3.15;;
20794;SDS011;28087;-33.874;151.240;2022-12-29T06:02:41;11.93;;;3.00;;
20794;SDS011;28087;-33.874;151.240;2022-12-29T06:05:18;13.55;;;3.00;;
20794;SDS011;28087;-33.874;151.240;2022-12-29T06:07:54;16.23;;;2.92;;
20794;SDS011;28087;-33.874;151.240;2022-12-29T06:10:29;20.08;;;3.35;;
20794;SDS011;28087;-33.874;151.240;2022-12-29T06:13:06;12.02;;;3.20;;
20794;SDS011;28087;-33.874;151.240;2022-12-29T06:15:47;14.27;;;3.05;;
20794;SDS011;28087;-33.874;151.240;2022-12-29T06:18:23;14.95;;;3.53;;
20794;SDS011;28087;-33.874;151.240;2022-12-29T06:20:59;16.40;;;3.58;;
20794;SDS011;28087;-33.874;151.240;2022-12-29T06:23:37;14.52;;;3.15;;
20794;SDS011;28087;-33.874;151.240;2022-12-29T06:26:12;11.73;;;3.00;;
20794;SDS011;28087;-33.874;151.240;2022-12-29T06:28:49;11.50;;;2.80;;
20794;SDS011;28087;-33.874;151.240;2022-12-29T06:31:34;12.63;;;2.88;;
20794;SDS011;28087;-33.874;151.240;2022-12-29T06:34:12;11.15;;;3.00;;
20794;SDS011;28087;-33.874;151.240;2022-12-29T06:36:47;9.88;;;2.88;;
20794;SDS011;28087;-33.874;151.240;2022-12-29T06:39:23;12.20;;;2.95;;
20794;SDS011;28087;-33.874;151.240;2022-12-29T06:42:05;13.02;;;3.22;;
20794;SDS011;28087;-33.874;151.240;2022-12-29T06:45:17;11.82;;;2.80;;
20794;SDS011;28087;-33.874;151.240;2022-12-29T06:47:53;12.40;;;3.08;;
20794;SDS011;28087;-33.874;151.240;2022-12-29T06:50:28;17.73;;;3.17;;
20794;SDS011;28087;-33.874;151.240;2022-12-29T06:53:24;13.65;;;2.97;;
20794;SDS011;28087;-33.874;151.240;2022-12-29T06:56:14;13.75;;;2.85;;
20794;SDS011;28087;-33.874;151.240;2022-12-29T06:59:02;12.48;;;3.25;;
20794;SDS011;28087;-33.874;151.240;2022-12-29T07:01:47;11.30;;;2.50;;
20794;SDS011;28087;-33.874;151.240;2022-12-29T07:04:31;14.18;;;2.80;;
20794;SDS011;28087;-33.874;151.240;2022-12-29T07:07:22;14.60;;;2.78;;
20794;SDS011;28087;-33.874;151.240;2022-12-29T07:10:03;15.50;;;3.40;;
20794;SDS011;28087;-33.874;151.240;2022-12-29T07:13:07;14.15;;;3.17;;
20794;SDS011;28087;-33.874;151.240;2022-12-29T07:15:50;12.93;;;2.80;;
20794;SDS011;28087;-33.874;151.240;2022-12-29T07:18:42;12.05;;;2.67;;
20794;SDS011;28087;-33.874;151.240;2022-12-29T07:21:23;15.60;;;2.97;;
20794;SDS011;28087;-33.874;151.240;2022-12-29T07:23:58;12.88;;;2.78;;
20794;SDS011;28087;-33.874;151.240;2022-12-29T07:26:32;15.65;;;3.35;;
20794;SDS011;28087;-33.874;151.240;2022-12-29T07:29:08;12.45;;;3.05;;
20794;SDS011;28087;-33.874;151.240;2022-12-29T07:31:42;14.80;;;2.72;;
20794;SDS011;28087;-33.874;151.240;2022-12-29T07:34:20;16.75;;;2.65;;
20794;SDS011;28087;-33.874;151.240;2022-12-29T07:36:57;15.30;;;2.80;;
20794;SDS011;28087;-33.874;151.240;2022-12-29T07:39:32;13.70;;;2.95;;
20794;SDS011;28087;-33.874;151.240;2022-12-29T07:42:07;13.52;;;3.08;;
20794;SDS011;28087;-33.874;151.240;2022-12-29T07:44:44;12.52;;;2.80;;
20794;SDS011;28087;-33.874;151.240;2022-12-29T07:47:41;11.95;;;2.70;;
20794;SDS011;28087;-33.874;151.240;2022-12-29T07:50:16;13.07;;;3.00;;
20794;SDS011;28087;-33.874;151.240;2022-12-29T07:52:57;18.83;;;3.17;;
20794;SDS011;28087;-33.874;151.240;2022-12-29T07:55:37;13.43;;;2.88;;
20794;SDS011;28087;-33.874;151.240;2022-12-29T07:58:11;12.35;;;2.97;;
20794;SDS011;28087;-33.874;151.240;2022-12-29T08:00:47;16.65;;;3.00;;
20794;SDS011;28087;-33.874;151.240;2022-12-29T08:03:21;13.27;;;2.95;;
20794;SDS011;28087;-33.874;151.240;2022-12-29T08:05:57;12.27;;;2.47;;
20794;SDS011;28087;-33.874;151.240;2022-12-29T08:08:34;13.85;;;3.30;;
20794;SDS011;28087;-33.874;151.240;2022-12-29T08:11:09;15.35;;;3.03;;
20794;SDS011;28087;-33.874;151.240;2022-12-29T08:13:45;13.82;;;2.58;;
20794;SDS011;28087;-33.874;151.240;2022-12-29T08:16:20;14.52;;;2.80;;
20794;SDS011;28087;-33.874;151.240;2022-12-29T08:18:56;12.43;;;2.75;;
20794;SDS011;28087;-33.874;151.240;2022-12-29T08:21:31;13.15;;;2.78;;
20794;SDS011;28087;-33.874;151.240;2022-12-29T08:24:08;10.43;;;2.72;;
20794;SDS011;28087;-33.874;151.240;2022-12-29T08:26:43;14.55;;;3.17;;
20794;SDS011;28087;-33.874;151.240;2022-12-29T08:29:18;14.88;;;3.47;;
20794;SDS011;28087;-33.874;151.240;2022-12-29T08:31:53;11.25;;;2.90;;
20794;SDS011;28087;-33.874;151.240;2022-12-29T08:34:27;12.23;;;3.00;;
20794;SDS011;28087;-33.874;151.240;2022-12-29T08:37:02;12.00;;;2.95;;
20794;SDS011;28087;-33.874;151.240;2022-12-29T08:39:39;11.90;;;2.80;;
20794;SDS011;28087;-33.874;151.240;2022-12-29T08:42:14;15.15;;;3.03;;
20794;SDS011;28087;-33.874;151.240;2022-12-29T08:44:48;11.30;;;2.95;;
20794;SDS011;28087;-33.874;151.240;2022-12-29T08:47:23;11.98;;;2.90;;
20794;SDS011;28087;-33.874;151.240;2022-12-29T08:49:58;16.50;;;3.38;;
20794;SDS011;28087;-33.874;151.240;2022-12-29T08:52:33;13.25;;;2.80;;
20794;SDS011;28087;-33.874;151.240;2022-12-29T08:55:10;12.45;;;2.80;;
20794;SDS011;28087;-33.874;151.240;2022-12-29T08:57:45;12.90;;;2.78;;
20794;SDS011;28087;-33.874;151.240;2022-12-29T09:00:21;13.25;;;3.13;;
20794;SDS011;28087;-33.874;151.240;2022-12-29T09:02:57;12.95;;;2.92;;
20794;SDS011;28087;-33.874;151.240;2022-12-29T09:05:31;15.82;;;2.90;;
20794;SDS011;28087;-33.874;151.240;2022-12-29T09:08:06;15.07;;;3.33;;
20794;SDS011;28087;-33.874;151.240;2022-12-29T09:10:44;17.45;;;3.25;;
20794;SDS011;28087;-33.874;151.240;2022-12-29T09:13:20;15.77;;;3.38;;
20794;SDS011;28087;-33.874;151.240;2022-12-29T09:15:58;14.77;;;3.05;;
20794;SDS011;28087;-33.874;151.240;2022-12-29T09:18:33;13.40;;;3.00;;
20794;SDS011;28087;-33.874;151.240;2022-12-29T09:21:09;17.95;;;3.40;;
20794;SDS011;28087;-33.874;151.240;2022-12-29T09:23:45;14.13;;;3.13;;
20794;SDS011;28087;-33.874;151.240;2022-12-29T09:26:22;17.67;;;3.33;;
20794;SDS011;28087;-33.874;151.240;2022-12-29T09:28:57;14.52;;;3.50;;
20794;SDS011;28087;-33.874;151.240;2022-12-29T09:31:32;14.13;;;2.95;;
20794;SDS011;28087;-33.874;151.240;2022-12-29T09:34:07;14.38;;;3.03;;
20794;SDS011;28087;-33.874;151.240;2022-12-29T09:36:41;13.48;;;2.55;;
20794;SDS011;28087;-33.874;151.240;2022-12-29T09:39:16;16.27;;;2.97;;
20794;SDS011;28087;-33.874;151.240;2022-12-29T09:41:56;12.05;;;2.78;;
20794;SDS011;28087;-33.874;151.240;2022-12-29T09:44:38;11.68;;;2.58;;
20794;SDS011;28087;-33.874;151.240;2022-12-29T09:47:16;19.92;;;3.25;;
20794;SDS011;28087;-33.874;151.240;2022-12-29T09:49:52;14.55;;;2.80;;
20794;SDS011;28087;-33.874;151.240;2022-12-29T09:52:30;13.77;;;2.83;;
20794;SDS011;28087;-33.874;151.240;2022-12-29T09:55:08;12.40;;;2.92;;
20794;SDS011;28087;-33.874;151.240;2022-12-29T09:57:47;9.93;;;2.67;;
20794;SDS011;28087;-33.874;151.240;2022-12-29T10:00:23;14.15;;;2.90;;
20794;SDS011;28087;-33.874;151.240;2022-12-29T10:03:02;13.45;;;2.45;;
20794;SDS011;28087;-33.874;151.240;2022-12-29T10:05:42;10.20;;;2.33;;
20794;SDS011;28087;-33.874;151.240;2022-12-29T10:08:25;11.65;;;2.60;;
20794;SDS011;28087;-33.874;151.240;2022-12-29T10:11:03;11.25;;;2.30;;
20794;SDS011;28087;-33.874;151.240;2022-12-29T10:13:47;11.68;;;2.60;;
20794;SDS011;28087;-33.874;151.240;2022-12-29T10:16:26;12.75;;;2.63;;
20794;SDS011;28087;-33.874;151.240;2022-12-29T10:19:19;12.70;;;2.60;;
20794;SDS011;28087;-33.874;151.240;2022-12-29T10:22:06;12.25;;;2.88;;
20794;SDS011;28087;-33.874;151.240;2022-12-29T10:24:44;11.07;;;2.47;;
20794;SDS011;28087;-33.874;151.240;2022-12-29T10:27:19;14.23;;;2.88;;
20794;SDS011;28087;-33.874;151.240;2022-12-29T10:29:56;15.07;;;2.67;;
20794;SDS011;28087;-33.874;151.240;2022-12-29T10:32:33;10.35;;;2.78;;
20794;SDS011;28087;-33.874;151.240;2022-12-29T10:35:11;12.27;;;2.47;;
20794;SDS011;28087;-33.874;151.240;2022-12-29T10:37:48;12.82;;;2.72;;
20794;SDS011;28087;-33.874;151.240;2022-12-29T10:40:25;12.07;;;2.58;;
20794;SDS011;28087;-33.874;151.240;2022-12-29T10:43:05;15.23;;;2.83;;
20794;SDS011;28087;-33.874;151.240;2022-12-29T10:45:52;15.80;;;3.03;;
20794;SDS011;28087;-33.874;151.240;2022-12-29T10:48:29;16.58;;;3.33;;
20794;SDS011;28087;-33.874;151.240;2022-12-29T10:51:05;17.73;;;2.83;;
20794;SDS011;28087;-33.874;151.240;2022-12-29T10:53:41;11.10;;;3.03;;
20794;SDS011;28087;-33.874;151.240;2022-12-29T10:56:20;16.75;;;3.20;;
20794;SDS011;28087;-33.874;151.240;2022-12-29T10:58:58;15.43;;;3.17;;
20794;SDS011;28087;-33.874;151.240;2022-12-29T11:01:37;15.02;;;3.28;;
20794;SDS011;28087;-33.874;151.240;2022-12-29T11:04:19;13.10;;;3.00;;
20794;SDS011;28087;-33.874;151.240;2022-12-29T11:06:55;15.52;;;3.38;;
20794;SDS011;28087;-33.874;151.240;2022-12-29T11:09:31;12.82;;;3.00;;
20794;SDS011;28087;-33.874;151.240;2022-12-29T11:12:21;20.17;;;3.78;;
20794;SDS011;28087;-33.874;151.240;2022-12-29T11:15:11;16.90;;;3.20;;
20794;SDS011;28087;-33.874;151.240;2022-12-29T11:17:48;19.55;;;3.40;;
20794;SDS011;28087;-33.874;151.240;2022-12-29T11:20:28;15.45;;;3.03;;
20794;SDS011;28087;-33.874;151.240;2022-12-29T11:23:04;13.45;;;3.05;;
20794;SDS011;28087;-33.874;151.240;2022-12-29T11:25:39;17.15;;;3.25;;
20794;SDS011;28087;-33.874;151.240;2022-12-29T11:28:14;19.42;;;3.22;;
20794;SDS011;28087;-33.874;151.240;2022-12-29T11:30:53;17.20;;;3.35;;
20794;SDS011;28087;-33.874;151.240;2022-12-29T11:33:36;16.88;;;3.28;;
20794;SDS011;28087;-33.874;151.240;2022-12-29T11:36:12;15.27;;;3.45;;
20794;SDS011;28087;-33.874;151.240;2022-12-29T11:38:48;19.20;;;3.42;;
20794;SDS011;28087;-33.874;151.240;2022-12-29T11:41:24;18.00;;;2.90;;
20794;SDS011;28087;-33.874;151.240;2022-12-29T11:43:59;17.65;;;3.08;;
20794;SDS011;28087;-33.874;151.240;2022-12-29T11:46:37;17.02;;;3.30;;
20794;SDS011;28087;-33.874;151.240;2022-12-29T11:49:16;15.32;;;3.15;;
20794;SDS011;28087;-33.874;151.240;2022-12-29T11:51:54;16.30;;;3.38;;
20794;SDS011;28087;-33.874;151.240;2022-12-29T11:54:29;18.23;;;3.42;;
20794;SDS011;28087;-33.874;151.240;2022-12-29T11:57:09;18.05;;;3.40;;
20794;SDS011;28087;-33.874;151.240;2022-12-29T11:59:49;15.90;;;3.20;;
20794;SDS011;28087;-33.874;151.240;2022-12-29T12:02:37;16.08;;;3.33;;
20794;SDS011;28087;-33.874;151.240;2022-12-29T12:05:24;14.82;;;3.03;;
20794;SDS011;28087;-33.874;151.240;2022-12-29T12:08:03;14.77;;;2.60;;
20794;SDS011;28087;-33.874;151.240;2022-12-29T12:10:50;14.38;;;2.88;;
20794;SDS011;28087;-33.874;151.240;2022-12-29T12:13:30;13.00;;;2.55;;
20794;SDS011;28087;-33.874;151.240;2022-12-29T12:16:08;13.25;;;2.53;;
20794;SDS011;28087;-33.874;151.240;2022-12-29T12:18:47;11.73;;;2.47;;
20794;SDS011;28087;-33.874;151.240;2022-12-29T12:21:27;12.85;;;2.70;;
20794;SDS011;28087;-33.874;151.240;2022-12-29T12:24:20;13.13;;;2.42;;
20794;SDS011;28087;-33.874;151.240;2022-12-29T12:27:00;12.75;;;2.47;;
20794;SDS011;28087;-33.874;151.240;2022-12-29T12:29:37;10.77;;;2.40;;
20794;SDS011;28087;-33.874;151.240;2022-12-29T12:32:13;10.38;;;2.55;;
20794;SDS011;28087;-33.874;151.240;2022-12-29T12:34:50;11.18;;;2.17;;
20794;SDS011;28087;-33.874;151.240;2022-12-29T12:37:39;12.68;;;2.35;;
20794;SDS011;28087;-33.874;151.240;2022-12-29T12:40:39;11.18;;;2.20;;
20794;SDS011;28087;-33.874;151.240;2022-12-29T12:43:35;12.65;;;2.30;;
20794;SDS011;28087;-33.874;151.240;2022-12-29T12:52:33;9.48;;;2.33;;
20794;SDS011;28087;-33.874;151.240;2022-12-29T12:55:30;12.90;;;2.30;;
20794;SDS011;28087;-33.874;151.240;2022-12-29T12:58:17;12.77;;;2.08;;
20794;SDS011;28087;-33.874;151.240;2022-12-29T13:01:03;14.13;;;2.20;;
20794;SDS011;28087;-33.874;151.240;2022-12-29T13:03:53;10.98;;;2.10;;
20794;SDS011;28087;-33.874;151.240;2022-12-29T13:06:40;11.18;;;2.30;;
20794;SDS011;28087;-33.874;151.240;2022-12-29T13:09:30;7.03;;;1.70;;
20794;SDS011;28087;-33.874;151.240;2022-12-29T13:12:11;10.18;;;2.17;;
20794;SDS011;28087;-33.874;151.240;2022-12-29T13:14:51;10.40;;;2.03;;
20794;SDS011;28087;-33.874;151.240;2022-12-29T13:17:34;9.05;;;2.13;;
20794;SDS011;28087;-33.874;151.240;2022-12-29T13:20:18;10.93;;;2.10;;
20794;SDS011;28087;-33.874;151.240;2022-12-29T13:22:55;9.55;;;2.08;;
20794;SDS011;28087;-33.874;151.240;2022-12-29T13:25:36;13.98;;;2.55;;
20794;SDS011;28087;-33.874;151.240;2022-12-29T13:28:13;11.18;;;2.30;;
20794;SDS011;28087;-33.874;151.240;2022-12-29T13:30:52;9.35;;;2.08;;
20794;SDS011;28087;-33.874;151.240;2022-12-29T13:33:30;10.10;;;2.40;;
20794;SDS011;28087;-33.874;151.240;2022-12-29T13:36:10;8.90;;;2.10;;
20794;SDS011;28087;-33.874;151.240;2022-12-29T13:38:48;9.63;;;1.95;;
20794;SDS011;28087;-33.874;151.240;2022-12-29T13:41:29;9.82;;;2.40;;
20794;SDS011;28087;-33.874;151.240;2022-12-29T13:44:05;10.60;;;1.85;;
20794;SDS011;28087;-33.874;151.240;2022-12-29T13:46:42;8.57;;;2.00;;
20794;SDS011;28087;-33.874;151.240;2022-12-29T13:49:18;10.70;;;2.08;;
20794;SDS011;28087;-33.874;151.240;2022-12-29T13:51:54;10.77;;;2.28;;
20794;SDS011;28087;-33.874;151.240;2022-12-29T13:54:30;11.63;;;2.15;;
20794;SDS011;28087;-33.874;151.240;2022-12-29T13:57:12;9.32;;;1.95;;
20794;SDS011;28087;-33.874;151.240;2022-12-29T13:59:57;10.02;;;2.10;;
20794;SDS011;28087;-33.874;151.240;2022-12-29T14:02:42;12.18;;;2.22;;
20794;SDS011;28087;-33.874;151.240;2022-12-29T14:05:27;9.68;;;2.28;;
20794;SDS011;28087;-33.874;151.240;2022-12-29T14:08:03;9.15;;;1.88;;
20794;SDS011;28087;-33.874;151.240;2022-12-29T14:10:45;7.70;;;1.95;;
20794;SDS011;28087;-33.874;151.240;2022-12-29T14:13:26;11.10;;;2.33;;
20794;SDS011;28087;-33.874;151.240;2022-12-29T14:16:02;9.88;;;2.00;;
20794;SDS011;28087;-33.874;151.240;2022-12-29T14:18:41;7.93;;;2.00;;
20794;SDS011;28087;-33.874;151.240;2022-12-29T14:21:18;11.07;;;1.90;;
20794;SDS011;28087;-33.874;151.240;2022-12-29T14:30:49;9.60;;;2.00;;
20794;SDS011;28087;-33.874;151.240;2022-12-29T14:33:26;12.07;;;2.28;;
20794;SDS011;28087;-33.874;151.240;2022-12-29T14:36:19;8.68;;;2.20;;
20794;SDS011;28087;-33.874;151.240;2022-12-29T14:38:58;7.35;;;1.90;;
20794;SDS011;28087;-33.874;151.240;2022-12-29T14:41:36;12.10;;;2.40;;
20794;SDS011;28087;-33.874;151.240;2022-12-29T14:44:16;9.10;;;1.95;;
20794;SDS011;28087;-33.874;151.240;2022-12-29T14:46:59;10.95;;;2.05;;
20794;SDS011;28087;-33.874;151.240;2022-12-29T14:49:40;10.23;;;2.13;;
20794;SDS011;28087;-33.874;151.240;2022-12-29T14:52:19;8.90;;;2.13;;
20794;SDS011;28087;-33.874;151.240;2022-12-29T14:54:57;10.15;;;1.98;;
20794;SDS011;28087;-33.874;151.240;2022-12-29T14:57:32;11.15;;;2.30;;
20794;SDS011;28087;-33.874;151.240;2022-12-29T15:00:14;9.13;;;2.20;;
20794;SDS011;28087;-33.874;151.240;2022-12-29T15:02:54;11.98;;;2.40;;
20794;SDS011;28087;-33.874;151.240;2022-12-29T15:05:34;10.48;;;2.33;;
20794;SDS011;28087;-33.874;151.240;2022-12-29T15:08:11;9.32;;;1.92;;
20794;SDS011;28087;-33.874;151.240;2022-12-29T15:10:48;11.60;;;2.30;;
20794;SDS011;28087;-33.874;151.240;2022-12-29T15:13:35;11.52;;;2.33;;
20794;SDS011;28087;-33.874;151.240;2022-12-29T15:16:24;13.10;;;2.63;;
20794;SDS011;28087;-33.874;151.240;2022-12-29T15:19:01;10.50;;;2.45;;
20794;SDS011;28087;-33.874;151.240;2022-12-29T15:21:42;14.25;;;2.50;;
20794;SDS011;28087;-33.874;151.240;2022-12-29T15:24:19;10.55;;;2.50;;
20794;SDS011;28087;-33.874;151.240;2022-12-29T15:26:54;12.93;;;2.42;;
20794;SDS011;28087;-33.874;151.240;2022-12-29T15:29:32;12.77;;;2.40;;
20794;SDS011;28087;-33.874;151.240;2022-12-29T15:32:20;10.82;;;2.20;;